Time;durP1;ratioP1;P1;durP2;ratioP2;P2;SDS_P1;SDS_P2;PMS_P1;PMS_P2;Temp;Humidity;BMP_temperature;BMP_pressure;BME280_temperature;BME280_humidity;BME280_pressure;Samples;Min_cycle;Max_cycle;Signal;HPM_P1;HPM_P2
2021/12/09 00:00:43;;;;;;;33.30;23.60;;;3.10;99.90;;;;;;5046836;28;20394;-57
2021/12/09 00:03:11;;;;;;;33.33;24.80;;;3.10;99.90;;;;;;5046906;28;20412;-56
2021/12/09 00:05:38;;;;;;;35.72;24.15;;;3.00;99.90;;;;;;5072356;28;20394;-58
2021/12/09 00:08:05;;;;;;;37.53;25.48;;;3.10;99.90;;;;;;5074125;28;20381;-56
2021/12/09 00:10:33;;;;;;;31.50;23.17;;;3.10;99.90;;;;;;5073452;28;20867;-58
2021/12/09 00:12:58;;;;;;;34.50;23.80;;;3.10;99.90;;;;;;5091581;28;20397;-57
2021/12/09 00:15:24;;;;;;;36.00;25.23;;;3.20;99.90;;;;;;5073939;28;20385;-58
2021/12/09 00:17:50;;;;;;;34.47;23.80;;;3.20;99.90;;;;;;5073136;28;20481;-57
2021/12/09 00:20:18;;;;;;;33.30;23.45;;;3.20;99.90;;;;;;5073361;28;20433;-54
2021/12/09 00:22:44;;;;;;;33.63;24.33;;;3.20;99.90;;;;;;5072860;28;20402;-55
2021/12/09 00:25:09;;;;;;;33.85;23.75;;;3.20;99.90;;;;;;5091407;28;20392;-55
2021/12/09 00:27:35;;;;;;;32.27;23.67;;;3.20;99.90;;;;;;5074788;28;20386;-56
2021/12/09 00:30:00;;;;;;;34.27;23.87;;;3.20;99.90;;;;;;5094407;28;20793;-53
2021/12/09 00:32:26;;;;;;;34.87;24.27;;;3.20;99.90;;;;;;5076528;28;20382;-56
2021/12/09 00:34:52;;;;;;;34.55;24.48;;;3.20;99.90;;;;;;5076268;28;20488;-58
2021/12/09 00:37:25;;;;;;;36.13;25.50;;;3.30;99.90;;;;;;5077265;28;20385;-58
2021/12/09 00:39:52;;;;;;;33.67;23.42;;;3.20;99.90;;;;;;5076646;28;20386;-57
2021/12/09 00:42:22;;;;;;;35.15;24.58;;;3.20;99.90;;;;;;5076358;28;20381;-54
2021/12/09 00:44:48;;;;;;;32.20;22.60;;;3.20;99.90;;;;;;5075913;28;20469;-59
2021/12/09 00:47:13;;;;;;;34.00;23.52;;;3.30;99.90;;;;;;5074313;28;20374;-54
2021/12/09 00:49:40;;;;;;;33.17;23.63;;;3.30;99.90;;;;;;5076643;28;20394;-56
2021/12/09 00:52:06;;;;;;;32.40;23.73;;;3.30;99.90;;;;;;5075918;28;20393;-56
2021/12/09 00:54:32;;;;;;;32.65;23.55;;;3.20;99.90;;;;;;5078922;28;20786;-58
2021/12/09 00:56:57;;;;;;;34.97;24.25;;;3.20;99.90;;;;;;5098309;28;20527;-58
2021/12/09 00:59:23;;;;;;;34.07;23.73;;;3.30;99.90;;;;;;5080232;28;20819;-56
2021/12/09 01:01:49;;;;;;;31.60;23.00;;;3.30;99.90;;;;;;5080779;28;20450;-56
2021/12/09 01:04:14;;;;;;;34.27;23.63;;;3.30;99.90;;;;;;5079901;28;20899;-56
2021/12/09 01:06:40;;;;;;;35.63;25.07;;;3.30;99.90;;;;;;5080023;28;20394;-56
2021/12/09 01:09:06;;;;;;;33.40;24.15;;;3.30;99.90;;;;;;5080056;28;20390;-58
2021/12/09 01:11:32;;;;;;;39.53;25.63;;;3.20;99.90;;;;;;5071075;28;20387;-58
2021/12/09 01:13:58;;;;;;;36.43;24.80;;;3.20;99.90;;;;;;5059362;28;20395;-59
2021/12/09 01:16:24;;;;;;;37.60;26.00;;;3.20;99.90;;;;;;5071995;28;20443;-57
2021/12/09 01:18:50;;;;;;;35.08;25.40;;;3.20;99.90;;;;;;5079578;28;20378;-59
2021/12/09 01:21:15;;;;;;;35.38;24.98;;;3.20;99.90;;;;;;5079741;28;20420;-59
2021/12/09 01:23:41;;;;;;;39.57;27.40;;;3.20;99.90;;;;;;5080005;28;20520;-59
2021/12/09 01:26:07;;;;;;;38.38;26.88;;;3.20;99.90;;;;;;5079594;28;20390;-57
2021/12/09 01:28:44;;;;;;;40.17;27.77;;;3.20;99.90;;;;;;5079973;28;20437;-58
2021/12/09 01:31:10;;;;;;;40.47;26.92;;;3.20;99.90;;;;;;5079101;28;20412;-58
2021/12/09 01:33:36;;;;;;;38.27;26.10;;;3.10;99.90;;;;;;5079785;28;20755;-55
2021/12/09 01:36:04;;;;;;;37.90;26.75;;;3.20;99.90;;;;;;5080339;28;20394;-56
2021/12/09 01:38:32;;;;;;;41.50;28.75;;;3.20;99.90;;;;;;5080075;28;20425;-57
2021/12/09 01:40:59;;;;;;;41.70;28.25;;;3.20;99.90;;;;;;5079984;28;20655;-59
2021/12/09 01:43:25;;;;;;;39.90;27.95;;;3.10;99.90;;;;;;5079735;28;20398;-59
2021/12/09 01:46:08;;;;;;;39.72;28.48;;;3.10;99.90;;;;;;5097560;28;20381;-58
2021/12/09 01:48:35;;;;;;;41.55;28.52;;;3.10;99.90;;;;;;5076291;28;20420;-59
2021/12/09 01:51:01;;;;;;;41.38;27.55;;;3.20;99.90;;;;;;5077627;28;20783;-56
2021/12/09 01:53:27;;;;;;;43.03;29.63;;;3.20;99.90;;;;;;5076293;28;20390;-56
2021/12/09 01:55:58;;;;;;;41.00;28.63;;;3.10;99.90;;;;;;5077107;28;20391;-57
2021/12/09 01:58:23;;;;;;;43.10;27.75;;;3.10;99.90;;;;;;5076054;28;20439;-57
2021/12/09 02:00:49;;;;;;;42.22;29.55;;;3.10;99.90;;;;;;5076558;28;20380;-57
2021/12/09 02:03:15;;;;;;;40.30;27.77;;;3.10;99.90;;;;;;5075710;28;20684;-57
2021/12/09 02:05:41;;;;;;;43.20;28.63;;;3.10;99.90;;;;;;5073025;28;20411;-58
2021/12/09 02:08:14;;;;;;;43.67;28.67;;;3.10;99.90;;;;;;5070612;28;20398;-57
2021/12/09 02:10:42;;;;;;;46.00;28.25;;;3.00;99.90;;;;;;5071642;28;20449;-56
2021/12/09 02:13:07;;;;;;;42.22;28.55;;;3.00;99.90;;;;;;5073180;28;20651;-55
2021/12/09 02:15:34;;;;;;;41.47;28.00;;;3.00;99.90;;;;;;5071583;28;20398;-58
2021/12/09 02:18:02;;;;;;;38.08;26.92;;;3.00;99.90;;;;;;5072308;28;20667;-57
2021/12/09 02:20:29;;;;;;;38.90;27.77;;;3.10;99.90;;;;;;5071651;28;20407;-57
2021/12/09 02:22:56;;;;;;;41.63;28.02;;;3.10;99.90;;;;;;5073210;28;20399;-56
2021/12/09 02:25:22;;;;;;;40.47;28.00;;;3.20;99.90;;;;;;5074036;28;20387;-56
2021/12/09 02:27:49;;;;;;;44.70;30.33;;;3.20;99.90;;;;;;5070509;28;20390;-55
2021/12/09 02:30:15;;;;;;;45.08;30.42;;;3.10;99.90;;;;;;5070852;28;20464;-57
2021/12/09 02:32:42;;;;;;;44.03;29.00;;;3.10;99.90;;;;;;5071867;28;20384;-57
2021/12/09 02:35:08;;;;;;;46.33;30.70;;;3.10;99.90;;;;;;5072995;28;20410;-57
2021/12/09 02:37:33;;;;;;;48.65;30.88;;;3.00;99.90;;;;;;5073316;28;20399;-55
2021/12/09 02:39:59;;;;;;;48.63;30.95;;;3.00;99.90;;;;;;5071477;28;20384;-55
2021/12/09 02:42:25;;;;;;;44.47;29.70;;;3.00;99.90;;;;;;5054748;28;20413;-57
2021/12/09 02:44:51;;;;;;;46.07;30.80;;;3.00;99.90;;;;;;5070372;28;20672;-56
2021/12/09 02:47:18;;;;;;;44.67;29.13;;;3.00;99.90;;;;;;5074281;28;20387;-56
2021/12/09 02:49:43;;;;;;;42.17;28.98;;;3.10;99.90;;;;;;5075855;28;20404;-57
2021/12/09 02:52:09;;;;;;;46.77;30.80;;;3.10;99.90;;;;;;5075321;28;20378;-56
2021/12/09 02:54:34;;;;;;;46.72;31.48;;;3.10;99.90;;;;;;5076935;28;20386;-56
2021/12/09 02:57:03;;;;;;;46.97;31.13;;;3.00;99.90;;;;;;5075008;28;20390;-57
2021/12/09 02:59:30;;;;;;;44.70;29.33;;;3.00;99.90;;;;;;5072759;28;20485;-56
2021/12/09 03:01:57;;;;;;;44.03;30.83;;;3.00;99.90;;;;;;5073031;28;20829;-57
2021/12/09 03:04:25;;;;;;;46.50;30.17;;;3.00;99.90;;;;;;5073883;28;20508;-57
2021/12/09 03:06:53;;;;;;;45.03;30.23;;;3.00;99.90;;;;;;5074759;28;20388;-57
2021/12/09 03:09:21;;;;;;;47.15;31.58;;;3.00;99.90;;;;;;5075446;28;20688;-57
2021/12/09 03:11:54;;;;;;;47.88;31.55;;;3.00;99.90;;;;;;5076697;28;20473;-56
2021/12/09 03:14:21;;;;;;;50.25;31.35;;;2.90;99.90;;;;;;5092725;28;20867;-58
2021/12/09 03:16:46;;;;;;;42.42;29.05;;;2.90;99.90;;;;;;5091672;28;20382;-55
2021/12/09 03:19:12;;;;;;;42.25;29.13;;;3.00;99.90;;;;;;5092132;28;20392;-57
2021/12/09 03:21:40;;;;;;;47.23;31.03;;;3.00;99.90;;;;;;5076249;28;20421;-57
2021/12/09 03:24:11;;;;;;;48.55;31.73;;;3.00;99.90;;;;;;5075314;28;20405;-57
2021/12/09 03:26:47;;;;;;;47.38;31.48;;;3.10;99.90;;;;;;5073161;28;20374;-57
2021/12/09 03:29:15;;;;;;;48.90;31.80;;;3.10;99.90;;;;;;5073534;28;20378;-55
2021/12/09 03:31:43;;;;;;;49.00;31.65;;;3.10;99.90;;;;;;5073913;28;20399;-57
2021/12/09 03:34:10;;;;;;;45.17;29.65;;;3.10;99.90;;;;;;5075103;28;20386;-57
2021/12/09 03:36:37;;;;;;;46.17;30.20;;;3.00;99.90;;;;;;5075766;28;20418;-57
2021/12/09 03:39:10;;;;;;;47.80;31.58;;;3.10;99.90;;;;;;5076502;28;20542;-58
2021/12/09 03:41:38;;;;;;;47.22;30.58;;;3.10;99.90;;;;;;5073736;28;20481;-58
2021/12/09 03:44:05;;;;;;;47.42;31.23;;;3.10;99.90;;;;;;5073010;28;20488;-57
2021/12/09 03:46:31;;;;;;;52.83;33.83;;;3.10;99.90;;;;;;5074102;28;20382;-57
2021/12/09 03:48:56;;;;;;;48.35;31.13;;;3.00;99.90;;;;;;5074023;28;20394;-57
2021/12/09 03:51:22;;;;;;;48.57;31.43;;;3.00;99.90;;;;;;5073524;28;20752;-58
2021/12/09 03:53:47;;;;;;;47.53;31.17;;;3.00;99.90;;;;;;5073933;28;20479;-56
2021/12/09 03:56:13;;;;;;;48.87;31.93;;;3.00;99.90;;;;;;5073610;28;20386;-58
2021/12/09 03:58:39;;;;;;;49.67;31.87;;;2.90;99.90;;;;;;5073619;28;20447;-57
2021/12/09 04:01:04;;;;;;;51.63;32.30;;;2.90;99.90;;;;;;5073815;28;20805;-56
2021/12/09 04:03:31;;;;;;;48.05;31.70;;;2.90;99.90;;;;;;5073681;28;20418;-57
2021/12/09 04:05:56;;;;;;;50.08;33.47;;;2.90;99.90;;;;;;5075281;28;20603;-58
2021/12/09 04:08:22;;;;;;;48.50;31.85;;;2.90;99.90;;;;;;5072988;28;20678;-55
2021/12/09 04:10:49;;;;;;;50.70;31.98;;;2.80;99.90;;;;;;5073135;28;20718;-57
2021/12/09 04:13:16;;;;;;;51.23;32.60;;;2.80;99.90;;;;;;5090513;28;20526;-58
2021/12/09 04:15:41;;;;;;;47.90;30.88;;;2.90;99.90;;;;;;5056722;28;20825;-55
2021/12/09 04:18:07;;;;;;;49.10;32.05;;;2.90;99.90;;;;;;5072203;28;20389;-52
2021/12/09 04:20:32;;;;;;;47.65;31.15;;;2.90;99.90;;;;;;5072582;28;20713;-55
2021/12/09 04:22:58;;;;;;;52.90;32.80;;;2.90;99.90;;;;;;5071886;28;20813;-58
2021/12/09 04:25:25;;;;;;;50.50;31.20;;;3.00;99.90;;;;;;5090290;28;20378;-57
2021/12/09 04:27:53;;;;;;;50.03;33.28;;;3.00;99.90;;;;;;5093222;28;20382;-57
2021/12/09 04:30:19;;;;;;;50.70;31.85;;;3.00;99.90;;;;;;5077384;28;20406;-57
2021/12/09 04:32:45;;;;;;;48.42;31.42;;;3.00;99.90;;;;;;5076116;28;20396;-58
2021/12/09 04:35:12;;;;;;;53.30;32.70;;;3.00;99.90;;;;;;5075732;28;20389;-54
2021/12/09 04:40:59;;;;;;;49.63;32.30;;;3.00;99.90;;;;;;5094370;28;20408;-57
2021/12/09 04:43:25;;;;;;;53.47;33.07;;;3.00;99.90;;;;;;5079793;28;20491;-57
2021/12/09 04:45:50;;;;;;;50.65;34.13;;;2.90;99.90;;;;;;5098826;28;21034;-56
2021/12/09 04:48:16;;;;;;;54.08;34.53;;;2.80;99.90;;;;;;5078027;28;20974;-53
2021/12/09 04:50:42;;;;;;;51.67;32.45;;;2.80;99.90;;;;;;5078508;28;20399;-52
2021/12/09 04:53:10;;;;;;;49.70;31.95;;;2.80;99.90;;;;;;5078753;28;20404;-52
2021/12/09 04:55:35;;;;;;;49.45;31.75;;;2.90;99.90;;;;;;5077942;28;20779;-57
2021/12/09 04:58:01;;;;;;;48.17;31.23;;;3.00;99.90;;;;;;5078244;28;20379;-57
2021/12/09 05:00:29;;;;;;;49.58;32.17;;;3.00;99.90;;;;;;5075627;28;20579;-57
2021/12/09 05:05:27;;;;;;;48.27;32.50;;;3.00;99.90;;;;;;5071958;28;20395;-57
2021/12/09 05:07:52;;;;;;;48.45;32.13;;;3.00;99.90;;;;;;5070584;28;20380;-57
2021/12/09 05:10:18;;;;;;;53.67;33.67;;;2.90;99.90;;;;;;5069000;28;20400;-57
2021/12/09 05:12:44;;;;;;;50.80;33.63;;;2.90;99.90;;;;;;5071191;28;20783;-56
2021/12/09 05:15:10;;;;;;;50.40;31.50;;;2.90;99.90;;;;;;5072227;28;20487;-57
2021/12/09 05:17:36;;;;;;;49.92;32.28;;;2.90;99.90;;;;;;5071354;28;20383;-58
2021/12/09 05:20:04;;;;;;;49.08;32.28;;;2.90;99.90;;;;;;5070197;28;20410;-56
2021/12/09 05:22:29;;;;;;;47.05;31.00;;;2.90;99.90;;;;;;5070582;28;20384;-56
2021/12/09 05:24:56;;;;;;;45.53;29.97;;;3.00;99.90;;;;;;5071029;28;20628;-57
2021/12/09 05:27:22;;;;;;;48.35;32.13;;;3.00;99.90;;;;;;5072417;28;20379;-57
2021/12/09 05:30:02;;;;;;;45.73;30.13;;;3.00;99.90;;;;;;5070223;28;20961;-57
2021/12/09 05:32:28;;;;;;;48.92;32.38;;;3.00;99.90;;;;;;5072380;28;20392;-58
2021/12/09 05:34:54;;;;;;;46.47;31.23;;;3.00;99.90;;;;;;5072053;28;20427;-57
2021/12/09 05:37:23;;;;;;;47.77;32.50;;;3.00;99.90;;;;;;5070680;28;20434;-57
2021/12/09 05:39:50;;;;;;;53.85;33.47;;;2.90;99.90;;;;;;5071562;28;20371;-57
2021/12/09 05:42:18;;;;;;;46.03;30.17;;;2.80;99.90;;;;;;5072574;28;20379;-57
2021/12/09 05:44:44;;;;;;;49.47;32.03;;;2.80;99.90;;;;;;5071640;28;20879;-56
2021/12/09 05:47:12;;;;;;;49.42;32.30;;;2.80;99.90;;;;;;5072126;28;20379;-57
2021/12/09 05:49:39;;;;;;;50.67;32.88;;;2.80;99.90;;;;;;5073442;28;20681;-55
2021/12/09 05:52:06;;;;;;;48.70;32.58;;;2.80;99.90;;;;;;5087688;28;20374;-57
2021/12/09 05:54:32;;;;;;;46.35;31.85;;;2.80;99.90;;;;;;5088366;28;20381;-57
2021/12/09 05:56:58;;;;;;;45.95;30.92;;;2.80;99.90;;;;;;5089704;28;20459;-57
2021/12/09 05:59:24;;;;;;;48.05;31.30;;;2.80;99.90;;;;;;5088348;28;20387;-58
2021/12/09 06:01:50;;;;;;;45.00;29.90;;;2.90;99.90;;;;;;5086769;28;20707;-59
2021/12/09 06:04:16;;;;;;;44.13;30.10;;;3.00;99.90;;;;;;5067188;28;20406;-58
2021/12/09 06:06:43;;;;;;;45.97;29.92;;;3.00;99.90;;;;;;5067685;28;20386;-58
2021/12/09 06:09:10;;;;;;;48.50;32.35;;;3.00;99.90;;;;;;5067779;28;20420;-58
2021/12/09 06:11:37;;;;;;;46.42;32.42;;;2.90;99.90;;;;;;5087730;28;20370;-56
2021/12/09 06:14:04;;;;;;;46.72;31.25;;;2.90;99.90;;;;;;5071300;28;20389;-58
2021/12/09 06:16:29;;;;;;;48.22;32.58;;;2.90;99.90;;;;;;5070139;28;20743;-56
2021/12/09 06:18:55;;;;;;;45.93;30.23;;;2.90;99.90;;;;;;5072133;28;20873;-55
2021/12/09 06:21:24;;;;;;;49.40;33.30;;;2.90;99.90;;;;;;5088831;28;20447;-55
2021/12/09 06:23:50;;;;;;;46.47;32.83;;;2.80;99.90;;;;;;5070798;28;20417;-58
2021/12/09 06:26:16;;;;;;;49.40;32.47;;;2.90;99.90;;;;;;5071426;28;20455;-57
2021/12/09 06:28:42;;;;;;;42.80;29.45;;;2.90;99.90;;;;;;5072155;28;20389;-53
2021/12/09 06:31:08;;;;;;;49.33;32.63;;;3.00;99.90;;;;;;5072305;28;20481;-58
2021/12/09 06:33:34;;;;;;;48.22;32.63;;;2.90;99.90;;;;;;5070583;28;20496;-56
2021/12/09 06:36:00;;;;;;;45.07;30.80;;;2.90;99.90;;;;;;5087851;28;20424;-56
2021/12/09 06:38:26;;;;;;;49.30;32.33;;;2.90;99.90;;;;;;5069531;28;20394;-59
2021/12/09 06:40:52;;;;;;;47.60;32.95;;;2.90;99.90;;;;;;5068150;28;20405;-58
2021/12/09 06:43:18;;;;;;;43.25;30.13;;;2.90;99.90;;;;;;5066510;28;20417;-59
2021/12/09 06:45:44;;;;;;;49.95;32.72;;;2.90;99.90;;;;;;5068253;28;20514;-58
2021/12/09 06:48:10;;;;;;;51.42;33.08;;;2.80;99.90;;;;;;5069217;28;20508;-57
2021/12/09 06:50:37;;;;;;;46.97;32.03;;;2.80;99.90;;;;;;5087824;28;20736;-58
2021/12/09 06:53:03;;;;;;;46.70;31.50;;;2.80;99.90;;;;;;5086728;28;20447;-57
2021/12/09 06:55:29;;;;;;;45.10;31.52;;;2.80;99.90;;;;;;5070432;28;20486;-54
2021/12/09 06:57:54;;;;;;;46.30;31.90;;;2.90;99.90;;;;;;5070148;28;20459;-56
2021/12/09 07:00:23;;;;;;;51.38;34.22;;;2.90;99.90;;;;;;5071614;28;20382;-56
2021/12/09 07:02:50;;;;;;;47.97;32.20;;;2.90;99.90;;;;;;5071800;28;20436;-59
2021/12/09 07:05:17;;;;;;;52.75;34.72;;;2.90;99.90;;;;;;5089939;28;20386;-59
2021/12/09 07:07:43;;;;;;;49.13;32.58;;;2.90;99.90;;;;;;5064792;28;20394;-57
2021/12/09 07:10:12;;;;;;;51.88;34.45;;;2.80;99.90;;;;;;5054457;28;20383;-59
2021/12/09 07:12:38;;;;;;;54.60;34.40;;;2.80;99.90;;;;;;5048600;28;20649;-59
2021/12/09 07:15:06;;;;;;;55.60;36.25;;;2.70;99.90;;;;;;5047105;28;20668;-55
2021/12/09 07:17:33;;;;;;;54.80;35.17;;;2.70;99.90;;;;;;5062455;28;20415;-57
2021/12/09 07:19:58;;;;;;;50.60;34.33;;;2.60;99.90;;;;;;5061784;28;20758;-59
2021/12/09 07:22:24;;;;;;;48.90;33.50;;;2.70;99.90;;;;;;5062051;28;20628;-56
2021/12/09 07:24:50;;;;;;;50.28;33.40;;;2.70;99.90;;;;;;5045605;28;20847;-57
2021/12/09 07:27:15;;;;;;;53.03;35.35;;;2.70;99.90;;;;;;5045330;28;20449;-59
2021/12/09 07:29:43;;;;;;;51.70;34.05;;;2.80;99.90;;;;;;5048992;28;20505;-55
2021/12/09 07:32:08;;;;;;;51.78;33.95;;;2.80;99.90;;;;;;5047483;28;20376;-52
2021/12/09 07:34:34;;;;;;;52.58;34.85;;;2.80;99.90;;;;;;5045876;28;20559;-57
2021/12/09 07:37:03;;;;;;;50.20;33.30;;;2.80;99.90;;;;;;5055692;28;20432;-58
2021/12/09 07:39:29;;;;;;;53.60;34.88;;;2.80;99.90;;;;;;5066099;28;20692;-56
2021/12/09 07:41:56;;;;;;;51.08;33.65;;;2.80;99.90;;;;;;5066098;28;20897;-56
2021/12/09 07:44:22;;;;;;;56.13;35.33;;;2.80;99.90;;;;;;5068110;28;20394;-55
2021/12/09 07:46:48;;;;;;;52.05;33.90;;;2.80;99.90;;;;;;5085704;28;20464;-57
2021/12/09 07:49:15;;;;;;;53.33;34.10;;;2.80;99.90;;;;;;5068632;28;21002;-58
2021/12/09 07:51:41;;;;;;;51.67;34.47;;;2.80;99.90;;;;;;5070656;28;21062;-55
2021/12/09 07:54:07;;;;;;;54.07;34.97;;;2.80;99.90;;;;;;5068142;28;20421;-52
2021/12/09 07:56:32;;;;;;;55.83;36.57;;;2.70;99.90;;;;;;5067476;28;20429;-55
2021/12/09 07:58:58;;;;;;;51.53;34.03;;;2.50;99.90;;;;;;5084625;28;20666;-55
2021/12/09 08:01:24;;;;;;;49.27;33.90;;;2.50;99.90;;;;;;5084583;28;20389;-57
2021/12/09 08:03:49;;;;;;;49.88;34.03;;;2.60;99.90;;;;;;5069048;28;20409;-55
2021/12/09 08:06:15;;;;;;;55.85;35.05;;;2.60;99.90;;;;;;5069637;28;20839;-58
2021/12/09 08:08:41;;;;;;;50.83;32.70;;;2.60;99.90;;;;;;5070800;28;20572;-53
2021/12/09 08:11:07;;;;;;;54.75;34.85;;;2.60;99.90;;;;;;5070126;28;20939;-58
2021/12/09 08:13:34;;;;;;;48.50;31.55;;;2.60;99.90;;;;;;5087059;28;20388;-56
2021/12/09 08:16:00;;;;;;;53.97;33.80;;;2.70;99.90;;;;;;5068781;28;20386;-56
2021/12/09 08:18:33;;;;;;;53.60;34.25;;;2.70;99.90;;;;;;5066949;28;20666;-58
2021/12/09 08:21:01;;;;;;;53.50;34.60;;;2.70;99.90;;;;;;5071859;28;20553;-57
2021/12/09 08:23:28;;;;;;;54.40;34.47;;;2.70;99.90;;;;;;5071080;28;20495;-55
2021/12/09 08:25:55;;;;;;;54.38;34.30;;;2.80;99.90;;;;;;5070921;28;20382;-57
2021/12/09 08:28:21;;;;;;;54.55;35.95;;;2.70;99.90;;;;;;5071597;28;20378;-58
2021/12/09 08:30:50;;;;;;;56.67;35.55;;;2.70;99.90;;;;;;5070853;28;20630;-58
2021/12/09 08:33:18;;;;;;;55.33;34.33;;;2.70;99.90;;;;;;5071103;28;20378;-56
2021/12/09 08:35:43;;;;;;;59.15;36.60;;;2.70;99.90;;;;;;5071536;28;20975;-57
2021/12/09 08:38:12;;;;;;;58.20;35.72;;;2.50;99.90;;;;;;5091130;28;20421;-58
2021/12/09 08:40:39;;;;;;;56.38;35.85;;;2.50;99.90;;;;;;5094713;28;20447;-57
2021/12/09 08:43:06;;;;;;;57.58;37.22;;;2.50;99.90;;;;;;5075847;28;20394;-57
2021/12/09 08:45:33;;;;;;;57.42;36.70;;;2.50;99.90;;;;;;5075076;28;20377;-56
2021/12/09 08:48:00;;;;;;;56.88;36.22;;;2.60;99.90;;;;;;5071260;28;20411;-58
2021/12/09 08:50:32;;;;;;;57.10;35.97;;;2.70;99.90;;;;;;5067795;28;20807;-52
2021/12/09 08:53:02;;;;;;;60.20;37.00;;;2.60;99.90;;;;;;5068209;28;20398;-55
2021/12/09 08:55:28;;;;;;;57.03;36.60;;;2.60;99.90;;;;;;5070561;28;20727;-56
2021/12/09 08:58:02;;;;;;;59.45;38.08;;;2.60;99.90;;;;;;5073183;28;20396;-55
2021/12/09 09:00:31;;;;;;;58.85;35.75;;;2.60;99.90;;;;;;5072634;28;20400;-61
2021/12/09 09:02:59;;;;;;;59.78;36.63;;;2.70;99.90;;;;;;5057742;28;20774;-60
2021/12/09 09:05:26;;;;;;;60.15;36.92;;;2.70;99.90;;;;;;5074110;28;20415;-56
2021/12/09 09:07:54;;;;;;;58.13;36.75;;;2.70;99.90;;;;;;5070794;28;20376;-57
2021/12/09 09:10:22;;;;;;;59.22;36.75;;;2.80;99.90;;;;;;5054268;28;20392;-54
2021/12/09 09:12:52;;;;;;;53.95;35.63;;;2.80;99.90;;;;;;5054006;28;20426;-55
2021/12/09 09:15:21;;;;;;;51.80;32.85;;;2.80;99.90;;;;;;5070784;28;20944;-53
2021/12/09 09:17:49;;;;;;;59.70;37.22;;;2.80;99.90;;;;;;5070006;28;20960;-55
2021/12/09 09:20:18;;;;;;;57.75;36.78;;;2.80;99.90;;;;;;5071805;28;20684;-55
2021/12/09 09:22:45;;;;;;;64.90;37.95;;;2.80;99.90;;;;;;5070566;28;20380;-55
2021/12/09 09:25:17;;;;;;;60.87;37.20;;;2.80;99.90;;;;;;5071472;28;20380;-55
2021/12/09 09:27:47;;;;;;;59.60;36.70;;;2.80;99.90;;;;;;5072158;28;20469;-56
2021/12/09 09:30:17;;;;;;;61.42;37.00;;;2.80;99.90;;;;;;5068680;28;20376;-54
2021/12/09 09:32:50;;;;;;;64.03;38.58;;;2.70;99.90;;;;;;5066233;28;20458;-54
2021/12/09 09:35:17;;;;;;;63.75;37.33;;;2.60;99.90;;;;;;5065305;28;20457;-54
2021/12/09 09:37:43;;;;;;;57.73;35.17;;;2.60;99.90;;;;;;5066044;28;20434;-54
2021/12/09 09:40:14;;;;;;;57.33;36.88;;;2.60;99.90;;;;;;5060936;28;20376;-56
2021/12/09 09:45:10;;;;;;;66.22;37.78;;;2.70;99.90;;;;;;5063694;28;20790;-58
2021/12/09 09:48:26;;;;;;;59.10;36.67;;;2.70;99.90;;;;;;5066158;28;20396;-56
2021/12/09 09:51:19;;;;;;;60.00;37.80;;;2.70;99.90;;;;;;5060629;28;20534;-54
2021/12/09 09:53:45;;;;;;;58.33;36.63;;;2.70;99.90;;;;;;5065574;28;20718;-55
2021/12/09 09:56:15;;;;;;;52.15;33.30;;;2.70;99.90;;;;;;5064558;28;20386;-56
2021/12/09 09:59:02;;;;;;;60.33;35.88;;;2.70;99.90;;;;;;5063409;28;20388;-57
2021/12/09 10:01:30;;;;;;;56.47;35.63;;;2.80;99.90;;;;;;5064993;28;20547;-55
2021/12/09 10:04:10;;;;;;;61.23;37.90;;;2.80;99.90;;;;;;5065831;28;20439;-57
2021/12/09 10:06:36;;;;;;;59.45;36.22;;;2.90;99.90;;;;;;5064167;28;20383;-56
2021/12/09 10:09:05;;;;;;;60.72;36.50;;;2.80;99.90;;;;;;5049736;28;20415;-57
2021/12/09 10:11:31;;;;;;;61.13;37.38;;;2.80;99.90;;;;;;5048665;28;20426;-56
2021/12/09 10:14:12;;;;;;;57.22;35.13;;;2.70;99.90;;;;;;5050930;28;20396;-55
2021/12/09 10:16:38;;;;;;;63.10;37.85;;;2.70;99.90;;;;;;5047202;28;20483;-55
2021/12/09 10:19:15;;;;;;;57.30;36.75;;;2.80;99.90;;;;;;5044455;28;20581;-58
2021/12/09 10:21:42;;;;;;;59.08;37.00;;;2.70;99.90;;;;;;5046148;28;20390;-56
2021/12/09 10:24:08;;;;;;;54.33;34.03;;;2.70;99.90;;;;;;5045172;28;20416;-56
2021/12/09 10:26:45;;;;;;;58.65;36.53;;;2.80;99.90;;;;;;5045296;28;20441;-58
2021/12/09 10:29:30;;;;;;;61.22;38.08;;;2.80;99.90;;;;;;5043259;28;20385;-58
2021/12/09 10:32:00;;;;;;;54.90;35.15;;;2.80;99.90;;;;;;5041377;28;20388;-58
2021/12/09 10:34:32;;;;;;;58.72;36.22;;;2.80;99.90;;;;;;5042946;28;20385;-57
2021/12/09 10:37:08;;;;;;;58.78;36.35;;;2.80;99.90;;;;;;5040185;28;20458;-56
2021/12/09 10:39:41;;;;;;;59.05;36.35;;;2.80;99.90;;;;;;5041431;28;20381;-58
2021/12/09 10:42:18;;;;;;;61.60;37.13;;;2.90;99.90;;;;;;5043663;28;20416;-55
2021/12/09 10:44:53;;;;;;;53.92;34.15;;;2.70;99.90;;;;;;5044148;28;20409;-58
2021/12/09 10:47:34;;;;;;;57.50;36.17;;;2.80;99.90;;;;;;5043206;28;20390;-58
2021/12/09 10:50:07;;;;;;;57.58;37.15;;;2.80;99.90;;;;;;5043504;28;20415;-58
2021/12/09 10:52:37;;;;;;;57.45;37.20;;;2.90;99.90;;;;;;5045331;28;20413;-57
2021/12/09 10:55:16;;;;;;;57.00;37.42;;;2.90;99.90;;;;;;5064815;28;20480;-58
2021/12/09 10:57:44;;;;;;;58.40;36.60;;;2.90;99.90;;;;;;5063114;28;20417;-56
2021/12/09 11:00:35;;;;;;;55.83;33.97;;;2.90;99.90;;;;;;5062408;28;20712;-58
2021/12/09 11:03:08;;;;;;;61.28;38.38;;;2.90;99.90;;;;;;5044857;28;20420;-55
2021/12/09 11:05:43;;;;;;;61.10;36.95;;;2.90;99.90;;;;;;5043428;28;20393;-56
2021/12/09 11:08:45;;;;;;;59.75;37.28;;;2.90;99.90;;;;;;5061495;28;20423;-55
2021/12/09 11:11:24;;;;;;;62.85;37.17;;;2.90;99.90;;;;;;5061342;28;20394;-57
2021/12/09 11:14:00;;;;;;;57.83;36.60;;;2.90;99.90;;;;;;5046505;28;20805;-56
2021/12/09 11:16:39;;;;;;;61.25;37.78;;;3.00;99.90;;;;;;5029559;28;20390;-56
2021/12/09 11:22:11;;;;;;;55.03;35.10;;;3.00;99.90;;;;;;5049748;28;20405;-55
2021/12/09 11:24:58;;;;;;;60.92;37.88;;;3.00;99.90;;;;;;5047388;28;20407;-55
2021/12/09 11:27:26;;;;;;;62.83;38.03;;;3.00;99.90;;;;;;5048776;28;20995;-56
2021/12/09 11:29:59;;;;;;;61.30;37.13;;;3.00;99.90;;;;;;5048643;28;20417;-54
2021/12/09 11:32:41;;;;;;;66.13;38.57;;;3.10;99.90;;;;;;5050421;28;20899;-58
2021/12/09 11:35:30;;;;;;;62.88;38.67;;;3.10;99.90;;;;;;5051258;28;20686;-53
2021/12/09 11:40:43;;;;;;;61.83;39.00;;;2.90;99.90;;;;;;5049630;28;20385;-58
2021/12/09 11:43:17;;;;;;;62.17;38.22;;;2.80;99.90;;;;;;5048163;28;20863;-57
2021/12/09 11:45:48;;;;;;;63.83;39.05;;;2.90;99.90;;;;;;5063893;28;20388;-57
2021/12/09 11:48:16;;;;;;;65.47;39.43;;;2.80;99.90;;;;;;5064781;28;21032;-54
2021/12/09 11:50:44;;;;;;;65.45;39.58;;;2.90;99.90;;;;;;5063982;28;21159;-57
2021/12/09 11:53:14;;;;;;;66.53;39.88;;;2.90;99.90;;;;;;5065206;28;20397;-57
2021/12/09 11:55:47;;;;;;;60.85;36.67;;;2.90;99.90;;;;;;5048806;28;20454;-56
2021/12/09 11:58:29;;;;;;;60.90;36.67;;;3.00;99.90;;;;;;5048622;28;20385;-56
2021/12/09 12:15:26;;;;;;;56.10;36.25;;;3.50;99.90;;;;;;5046153;28;20389;-57
2021/12/09 12:20:48;;;;;;;62.00;38.38;;;3.50;99.90;;;;;;5047368;28;20403;-58
2021/12/09 12:23:41;;;;;;;62.57;38.53;;;3.60;99.90;;;;;;5043982;28;20413;-56
2021/12/09 12:26:45;;;;;;;61.83;38.90;;;3.60;99.90;;;;;;5055823;28;20421;-56
2021/12/09 12:29:36;;;;;;;56.83;35.63;;;3.50;99.90;;;;;;5083126;28;21072;-58
2021/12/09 12:32:35;;;;;;;60.05;35.53;;;3.40;99.90;;;;;;5064910;28;20509;-55
2021/12/09 12:40:59;;;;;;;61.22;37.40;;;3.60;99.90;;;;;;5065107;28;20391;-57
2021/12/09 12:43:45;;;;;;;63.55;38.90;;;3.60;99.90;;;;;;5064293;28;20431;-57
2021/12/09 12:46:32;;;;;;;58.13;37.10;;;3.50;99.90;;;;;;5048501;28;20815;-58
2021/12/09 12:52:17;;;;;;;55.33;35.70;;;3.60;99.90;;;;;;5086854;28;20443;-59
2021/12/09 12:54:57;;;;;;;65.07;37.47;;;3.70;99.90;;;;;;5087882;28;21096;-56
2021/12/09 12:57:31;;;;;;;67.67;39.03;;;3.70;99.90;;;;;;5065595;28;20847;-59
2021/12/09 13:03:41;;;;;;;56.45;34.33;;;3.60;99.90;;;;;;5062822;28;20460;-59
2021/12/09 13:06:15;;;;;;;52.67;32.03;;;3.70;99.90;;;;;;5065434;28;20927;-58
2021/12/09 13:11:52;;;;;;;64.27;38.63;;;3.80;99.90;;;;;;5068311;28;20379;-57
2021/12/09 13:14:58;;;;;;;61.85;37.80;;;3.70;99.90;;;;;;5050678;28;20415;-58
2021/12/09 13:17:37;;;;;;;60.77;38.27;;;3.70;99.90;;;;;;5048228;28;21090;-57
2021/12/09 13:20:10;;;;;;;56.30;36.08;;;3.60;99.90;;;;;;5032754;28;20483;-59
2021/12/09 13:22:40;;;;;;;54.70;34.58;;;3.60;99.90;;;;;;5068172;28;20379;-58
2021/12/09 13:25:24;;;;;;;53.87;34.57;;;3.70;99.90;;;;;;5048848;28;20404;-57
2021/12/09 13:28:01;;;;;;;62.65;38.08;;;3.70;99.90;;;;;;5067511;28;20400;-57
2021/12/09 13:31:00;;;;;;;65.40;39.67;;;3.70;99.90;;;;;;5048074;28;20407;-58
2021/12/09 13:49:59;;;;;;;63.58;39.15;;;3.60;99.90;;;;;;5057497;28;20418;-58